Time;durP1;ratioP1;P1;durP2;ratioP2;P2;SDS_P1;SDS_P2;PMS_P1;PMS_P2;Temp;Humidity;BMP_temperature;BMP_pressure;BME280_temperature;BME280_humidity;BME280_pressure;Samples;Min_cycle;Max_cycle;Signal;HPM_P1;HPM_P2
2023/10/20 00:00:06;;;;;;;;;0.50;0.00;;;;;18.00;73.51;97450.72;5119707;27;45492;-78
2023/10/20 00:02:31;;;;;;;;;0.25;0.00;;;;;17.97;73.00;97453.69;5100983;27;45616;-77
2023/10/20 00:04:57;;;;;;;;;1.00;0.00;;;;;17.95;73.79;97445.91;5103626;27;45401;-77
2023/10/20 00:07:22;;;;;;;;;1.00;1.00;;;;;17.91;73.47;97441.97;5106055;27;45385;-77
2023/10/20 00:09:49;;;;;;;;;2.00;1.00;;;;;17.95;73.59;97439.81;5100178;27;70072;-77
2023/10/20 00:12:15;;;;;;;;;1.25;1.00;;;;;17.94;73.82;97438.19;5107332;27;45463;-77
2023/10/20 00:14:41;;;;;;;;;2.00;1.00;;;;;17.90;73.94;97435.06;5112053;27;45386;-77
2023/10/20 00:17:06;;;;;;;;;1.00;0.00;;;;;17.87;74.41;97414.22;5109739;27;45434;-76
2023/10/20 00:19:31;;;;;;;;;1.50;0.75;;;;;17.86;74.21;97417.84;5110938;27;59847;-76
2023/10/20 00:21:57;;;;;;;;;1.50;1.00;;;;;17.84;74.34;97409.22;5106811;27;67713;-77
2023/10/20 00:24:22;;;;;;;;;1.00;1.00;;;;;17.81;74.39;97398.97;5109117;27;59496;-77
2023/10/20 00:26:49;;;;;;;;;3.00;0.50;;;;;17.84;74.52;97393.34;5099849;27;45422;-78
2023/10/20 00:29:14;;;;;;;;;1.00;1.00;;;;;17.83;74.84;97389.06;5110348;27;45625;-78
2023/10/20 00:31:39;;;;;;;;;1.00;1.00;;;;;17.83;74.66;97381.97;5107131;27;56563;-78
2023/10/20 00:34:05;;;;;;;;;0.00;0.00;;;;;17.82;74.74;97382.94;5116610;27;61876;-77
2023/10/20 00:36:30;;;;;;;;;1.00;0.75;;;;;17.81;74.88;97385.75;5104677;27;49986;-78
2023/10/20 00:38:55;;;;;;;;;0.50;0.50;;;;;17.80;75.56;97392.88;5093987;27;53266;-77
2023/10/20 00:41:21;;;;;;;;;0.50;0.50;;;;;17.76;75.20;97391.56;5121200;27;45241;-77
2023/10/20 00:43:51;;;;;;;;;3.00;1.25;;;;;17.79;76.03;97396.50;5120336;27;67645;-77
2023/10/20 00:46:17;;;;;;;;;1.00;1.00;;;;;17.73;75.30;97391.91;5107437;27;45321;-77
2023/10/20 00:48:42;;;;;;;;;0.00;0.00;;;;;17.71;75.77;97396.53;5116428;27;46145;-78
2023/10/20 00:51:08;;;;;;;;;0.00;0.00;;;;;17.68;75.31;97404.81;5110005;27;54086;-76
2023/10/20 00:53:34;;;;;;;;;0.00;0.00;;;;;17.64;75.52;97409.59;5108603;27;70282;-77
2023/10/20 00:56:01;;;;;;;;;0.00;0.00;;;;;17.60;75.57;97412.72;5103469;27;45629;-77
2023/10/20 00:58:27;;;;;;;;;1.00;0.25;;;;;17.57;75.87;97413.91;5102268;27;46319;-77
2023/10/20 01:00:53;;;;;;;;;1.00;0.00;;;;;17.53;75.34;97396.75;5104010;27;45342;-76
2023/10/20 01:03:19;;;;;;;;;0.00;0.00;;;;;17.53;75.73;97399.38;5111216;27;60947;-76
2023/10/20 01:05:44;;;;;;;;;0.00;0.00;;;;;17.52;75.63;97400.38;5085798;27;45413;-76
2023/10/20 01:08:10;;;;;;;;;0.00;0.00;;;;;17.44;75.64;97374.78;5108529;27;46631;-76
2023/10/20 01:10:35;;;;;;;;;0.00;0.00;;;;;17.51;75.52;97384.66;5102593;27;45299;-77
2023/10/20 01:13:01;;;;;;;;;0.00;0.00;;;;;17.48;75.27;97367.34;5099530;27;45265;-76
2023/10/20 01:15:27;;;;;;;;;0.00;0.00;;;;;17.47;75.45;97352.44;5104748;27;70721;-76
2023/10/20 01:17:52;;;;;;;;;0.00;0.00;;;;;17.42;75.29;97345.03;5122013;27;46282;-76
2023/10/20 01:20:17;;;;;;;;;0.00;0.00;;;;;17.40;75.45;97349.66;5121655;27;45467;-77
2023/10/20 01:22:44;;;;;;;;;1.00;1.00;;;;;17.38;75.45;97354.28;5119683;27;45309;-78
2023/10/20 01:25:11;;;;;;;;;1.00;0.00;;;;;17.33;75.71;97353.97;5105639;27;45529;-77
2023/10/20 01:27:37;;;;;;;;;0.00;0.00;;;;;17.26;75.28;97358.28;5110630;27;45377;-76
2023/10/20 01:30:03;;;;;;;;;0.50;0.00;;;;;17.21;75.50;97358.78;5106354;27;45257;-76
2023/10/20 01:32:29;;;;;;;;;0.75;0.00;;;;;17.20;75.48;97356.31;5083450;27;45443;-75
2023/10/20 01:34:54;;;;;;;;;0.00;0.00;;;;;17.19;75.69;97337.00;5107015;27;45165;-76
2023/10/20 01:37:19;;;;;;;;;0.00;0.00;;;;;17.20;75.39;97329.88;5111556;27;47951;-77
2023/10/20 01:39:45;;;;;;;;;0.00;0.00;;;;;17.20;75.37;97324.59;5117772;27;45448;-78
2023/10/20 01:42:10;;;;;;;;;0.00;0.00;;;;;17.21;75.35;97313.00;5100620;27;45360;-78
2023/10/20 01:44:36;;;;;;;;;0.00;0.00;;;;;17.19;74.58;97313.22;5116610;27;45477;-79
2023/10/20 01:47:01;;;;;;;;;0.00;0.00;;;;;17.18;74.55;97308.91;5109523;27;45540;-79
2023/10/20 01:49:26;;;;;;;;;0.00;0.00;;;;;17.15;74.74;97297.84;5112772;27;50338;-78
2023/10/20 01:51:52;;;;;;;;;0.00;0.00;;;;;17.14;74.74;97289.09;5111166;27;45365;-78
2023/10/20 01:54:17;;;;;;;;;0.00;0.00;;;;;17.14;74.59;97288.25;5105732;27;45408;-78
2023/10/20 01:56:43;;;;;;;;;0.75;0.00;;;;;17.12;74.24;97283.13;5110556;27;46087;-78
2023/10/20 01:59:09;;;;;;;;;0.00;0.00;;;;;17.10;73.56;97285.13;5101912;27;45793;-76
2023/10/20 02:01:34;;;;;;;;;1.00;0.00;;;;;17.09;73.64;97296.72;5083164;27;45264;-76
2023/10/20 02:04:00;;;;;;;;;0.00;0.00;;;;;17.05;73.60;97290.94;5102129;27;45436;-77
2023/10/20 02:06:25;;;;;;;;;0.50;0.00;;;;;17.05;74.17;97280.38;5116001;27;47219;-77
2023/10/20 02:08:50;;;;;;;;;0.00;0.00;;;;;17.03;74.36;97270.94;5099388;27;45390;-77
2023/10/20 02:11:16;;;;;;;;;0.00;0.00;;;;;17.03;74.20;97258.59;5102526;27;58646;-77
2023/10/20 02:13:45;;;;;;;;;0.00;0.00;;;;;17.05;74.30;97250.47;5118679;27;45218;-76
2023/10/20 02:16:10;;;;;;;;;0.00;0.00;;;;;17.05;73.54;97250.47;5121602;27;45399;-78
2023/10/20 02:18:36;;;;;;;;;0.25;0.00;;;;;17.01;72.96;97249.16;5118952;27;45473;-77
2023/10/20 02:21:07;;;;;;;;;0.00;0.00;;;;;16.95;72.95;97240.09;5119634;27;46072;-77
2023/10/20 02:23:34;;;;;;;;;1.00;0.00;;;;;16.97;73.30;97237.28;5104684;27;45335;-77
2023/10/20 02:26:05;;;;;;;;;0.75;0.00;;;;;16.98;73.44;97233.63;5098871;27;46306;-77
2023/10/20 02:28:34;;;;;;;;;0.75;0.75;;;;;16.97;73.82;97214.34;5093703;27;45359;-77
2023/10/20 02:31:01;;;;;;;;;0.00;0.00;;;;;16.98;74.07;97196.66;5117512;27;45548;-77
2023/10/20 02:33:26;;;;;;;;;0.00;0.00;;;;;16.97;73.79;97193.19;5119322;27;45452;-77
2023/10/20 02:35:52;;;;;;;;;0.00;0.00;;;;;16.94;73.43;97192.72;5111538;27;45411;-77
2023/10/20 02:38:21;;;;;;;;;1.25;0.00;;;;;16.92;73.45;97190.25;5101869;27;45669;-77
2023/10/20 02:40:50;;;;;;;;;0.00;0.00;;;;;16.94;73.89;97203.28;5099575;27;45453;-77
2023/10/20 02:43:16;;;;;;;;;0.00;0.00;;;;;16.91;73.53;97207.09;5087667;27;45512;-78
2023/10/20 02:45:52;;;;;;;;;0.00;0.00;;;;;16.89;73.58;97215.19;5105681;27;70864;-77
2023/10/20 02:48:21;;;;;;;;;0.25;0.00;;;;;16.91;73.77;97209.75;5101534;27;45750;-77
2023/10/20 02:50:47;;;;;;;;;0.00;0.00;;;;;16.89;74.16;97201.97;5088102;27;45354;-77
2023/10/20 02:53:15;;;;;;;;;0.00;0.00;;;;;16.89;74.07;97198.50;5099576;27;61511;-77
2023/10/20 02:55:41;;;;;;;;;0.00;0.00;;;;;16.90;73.96;97210.72;5100004;27;48099;-76
2023/10/20 02:58:07;;;;;;;;;0.00;0.00;;;;;16.88;74.33;97207.44;5104210;27;45533;-77
2023/10/20 03:00:33;;;;;;;;;1.00;0.00;;;;;16.87;74.64;97206.63;5111270;27;45503;-77
2023/10/20 03:02:59;;;;;;;;;0.00;0.00;;;;;16.88;74.18;97204.78;5111838;27;45291;-76
2023/10/20 03:05:29;;;;;;;;;0.00;0.00;;;;;16.87;74.24;97196.03;5115755;27;45428;-76
2023/10/20 03:07:58;;;;;;;;;2.00;0.00;;;;;16.86;74.34;97183.81;5102312;27;45647;-77
2023/10/20 03:10:24;;;;;;;;;0.25;0.25;;;;;16.87;74.37;97184.63;5120520;27;45478;-77
2023/10/20 03:12:50;;;;;;;;;2.00;0.00;;;;;16.81;74.64;97177.38;5111038;27;45366;-76
2023/10/20 03:15:15;;;;;;;;;0.00;0.00;;;;;16.86;74.74;97183.00;5101859;27;74484;-76
2023/10/20 03:17:41;;;;;;;;;0.00;0.00;;;;;16.86;74.41;97183.00;5098428;27;45786;-77
2023/10/20 03:20:08;;;;;;;;;0.00;0.00;;;;;16.84;74.68;97171.78;5103227;27;45653;-76
2023/10/20 03:22:34;;;;;;;;;0.00;0.00;;;;;16.82;74.59;97173.72;5101383;27;45421;-77
2023/10/20 03:25:02;;;;;;;;;0.00;0.00;;;;;16.79;74.31;97171.44;5098844;27;46156;-76
2023/10/20 03:27:27;;;;;;;;;0.00;0.00;;;;;16.81;74.41;97164.16;5104011;27;45637;-77
2023/10/20 03:29:53;;;;;;;;;1.00;0.00;;;;;16.78;74.40;97161.84;5097386;27;45275;-76
2023/10/20 03:32:18;;;;;;;;;0.75;0.00;;;;;16.79;74.36;97155.59;5101855;27;67629;-76
2023/10/20 03:34:43;;;;;;;;;0.75;0.00;;;;;16.77;74.29;97147.84;5114270;27;65801;-77
2023/10/20 03:37:09;;;;;;;;;1.00;0.00;;;;;16.75;74.45;97130.50;5113177;27;45430;-76
2023/10/20 03:39:36;;;;;;;;;0.00;0.00;;;;;16.76;74.58;97137.44;5116014;27;45270;-76
2023/10/20 03:42:02;;;;;;;;;0.00;0.00;;;;;16.76;74.87;97142.72;5102948;27;45319;-76
2023/10/20 03:44:28;;;;;;;;;0.50;0.50;;;;;16.73;75.06;97135.13;5117353;27;46644;-77
2023/10/20 03:46:56;;;;;;;;;1.00;1.00;;;;;16.72;74.73;97130.88;5121462;27;45305;-76
2023/10/20 03:49:22;;;;;;;;;2.00;0.00;;;;;16.64;74.68;97115.84;5121112;27;45296;-76
2023/10/20 03:51:49;;;;;;;;;0.00;0.00;;;;;16.68;74.94;97135.66;5115148;27;62951;-76
2023/10/20 03:54:15;;;;;;;;;0.00;0.00;;;;;16.67;75.14;97155.13;5121070;27;45342;-76
2023/10/20 03:56:41;;;;;;;;;0.00;0.00;;;;;16.64;74.78;97151.00;5111552;27;45274;-76
2023/10/20 03:59:08;;;;;;;;;0.50;0.00;;;;;16.63;75.05;97156.47;5109739;27;45276;-76
2023/10/20 04:01:33;;;;;;;;;0.00;0.00;;;;;16.63;75.41;97169.66;5121301;27;45468;-77
2023/10/20 04:03:59;;;;;;;;;0.75;0.00;;;;;16.62;75.49;97181.19;5104436;27;45529;-77
2023/10/20 04:06:24;;;;;;;;;2.00;0.00;;;;;16.58;75.19;97190.44;5105534;27;45725;-78
2023/10/20 04:08:49;;;;;;;;;0.50;0.50;;;;;16.57;74.89;97200.16;5119352;27;59971;-78
2023/10/20 04:11:15;;;;;;;;;0.00;0.00;;;;;16.52;74.94;97186.66;5110399;27;58895;-79
2023/10/20 04:13:40;;;;;;;;;0.00;0.00;;;;;16.54;75.05;97195.25;5102321;27;58014;-78
2023/10/20 04:16:13;;;;;;;;;0.00;0.00;;;;;16.54;75.26;97192.59;5112400;27;53335;-78
2023/10/20 04:18:42;;;;;;;;;0.50;0.50;;;;;16.52;75.67;97195.41;5109680;27;45337;-78
2023/10/20 04:21:07;;;;;;;;;1.00;1.00;;;;;16.50;75.65;97200.03;5109929;27;45557;-77
2023/10/20 04:23:33;;;;;;;;;1.00;1.00;;;;;16.51;75.09;97203.47;5107835;27;46535;-77
2023/10/20 04:25:58;;;;;;;;;1.50;0.75;;;;;16.51;75.41;97206.13;5108567;27;45417;-77
2023/10/20 04:28:43;;;;;;;;;1.75;0.00;;;;;16.49;75.37;97202.81;5092263;27;45402;-77
2023/10/20 04:58:24;;;;;;;;;1.25;0.00;;;;;16.26;75.52;97263.34;5110219;27;45400;-76
2023/10/20 05:01:01;;;;;;;;;0.25;0.00;;;;;16.26;76.39;97273.91;5108929;27;45505;-76
2023/10/20 05:03:45;;;;;;;;;0.50;0.00;;;;;16.22;75.78;97272.56;5112602;27;45323;-78
2023/10/20 05:06:20;;;;;;;;;0.50;0.50;;;;;16.17;75.87;97275.69;5091715;27;47149;-77
2023/10/20 05:08:46;;;;;;;;;2.00;0.50;;;;;16.20;76.08;97285.09;5118107;27;45487;-76
2023/10/20 05:11:12;;;;;;;;;1.25;0.00;;;;;16.19;75.98;97275.53;5106740;27;45345;-76
2023/10/20 05:13:37;;;;;;;;;0.00;0.00;;;;;16.20;75.95;97269.25;5111257;27;73050;-77
2023/10/20 05:16:03;;;;;;;;;3.00;1.50;;;;;16.22;76.56;97276.03;5111202;27;66923;-77
2023/10/20 05:18:29;;;;;;;;;1.50;0.75;;;;;16.23;76.29;97276.84;5105275;27;45397;-77
2023/10/20 05:20:55;;;;;;;;;1.75;0.75;;;;;16.24;76.17;97270.59;5100350;27;45395;-77
2023/10/20 05:23:20;;;;;;;;;0.75;0.75;;;;;16.23;76.36;97256.56;5106313;27;45405;-77
2023/10/20 05:25:47;;;;;;;;;0.25;0.25;;;;;16.23;76.49;97261.84;5100959;27;61890;-77
2023/10/20 05:28:13;;;;;;;;;0.75;0.75;;;;;16.24;76.22;97257.41;5113918;27;45266;-77
2023/10/20 05:30:42;;;;;;;;;0.00;0.00;;;;;16.23;76.36;97248.66;5117711;27;45576;-77
2023/10/20 05:33:09;;;;;;;;;2.00;0.75;;;;;16.25;76.35;97259.88;5117068;27;46117;-77
2023/10/20 05:35:34;;;;;;;;;0.25;0.00;;;;;16.27;76.52;97257.91;5106967;27;46667;-77
2023/10/20 05:38:00;;;;;;;;;0.50;0.50;;;;;16.25;76.33;97249.31;5106453;27;45309;-76
2023/10/20 05:40:25;;;;;;;;;1.75;1.75;;;;;16.26;77.69;97242.25;5115535;27;69214;-76
2023/10/20 05:42:50;;;;;;;;;0.25;0.25;;;;;16.23;76.44;97226.72;5107839;27;45315;-77
2023/10/20 05:45:20;;;;;;;;;2.25;1.50;;;;;16.24;76.82;97233.66;5132460;27;69097;-77
2023/10/20 05:47:46;;;;;;;;;1.50;0.50;;;;;16.24;76.80;97221.28;5121285;27;45530;-77
2023/10/20 05:50:12;;;;;;;;;2.50;0.00;;;;;16.25;76.80;97232.66;5102681;27;45423;-77
2023/10/20 05:52:39;;;;;;;;;0.00;0.00;;;;;16.24;76.93;97234.47;5125701;27;45455;-77
2023/10/20 05:55:05;;;;;;;;;2.00;0.75;;;;;16.24;76.95;97228.41;5120432;27;46044;-77
2023/10/20 05:57:30;;;;;;;;;0.75;0.75;;;;;16.30;77.07;97227.72;5099575;27;45991;-77
2023/10/20 05:59:58;;;;;;;;;0.00;0.00;;;;;16.27;76.88;97220.97;5110114;27;62428;-77
2023/10/20 06:02:24;;;;;;;;;0.50;0.50;;;;;16.32;76.90;97239.78;5113463;27;45424;-77
2023/10/20 06:04:49;;;;;;;;;1.00;0.50;;;;;16.28;76.77;97230.53;5110319;27;45451;-77
2023/10/20 06:07:15;;;;;;;;;1.75;1.75;;;;;16.33;76.47;97251.16;5116150;27;45890;-79
2023/10/20 06:09:42;;;;;;;;;0.75;0.75;;;;;16.32;76.55;97250.34;5106464;27;54243;-79
2023/10/20 06:12:07;;;;;;;;;0.00;0.00;;;;;16.28;76.45;97253.44;5106839;27;45368;-78
2023/10/20 06:14:36;;;;;;;;;0.50;0.00;;;;;16.30;76.51;97249.66;5119515;27;46252;-78
2023/10/20 06:17:01;;;;;;;;;1.00;1.00;;;;;16.27;76.48;97239.44;5110453;27;45444;-78
2023/10/20 06:19:28;;;;;;;;;1.00;0.75;;;;;16.35;76.54;97235.16;5137607;27;45419;-76
2023/10/20 06:21:54;;;;;;;;;2.75;1.00;;;;;16.34;76.54;97236.94;5108690;27;45468;-76
2023/10/20 06:24:19;;;;;;;;;0.50;0.50;;;;;16.34;76.41;97255.41;5125678;27;47703;-76
2023/10/20 06:26:45;;;;;;;;;0.75;0.75;;;;;16.33;76.46;97259.06;5119402;27;71484;-77
2023/10/20 06:29:42;;;;;;;;;1.00;1.00;;;;;16.34;76.49;97255.41;5118988;27;45485;-77
2023/10/20 06:32:23;;;;;;;;;2.00;0.75;;;;;16.33;76.44;97253.78;5108191;27;45349;-76
2023/10/20 06:34:49;;;;;;;;;4.00;2.25;;;;;16.33;76.68;97259.06;5103433;27;48138;-76
2023/10/20 06:37:36;;;;;;;;;2.00;1.00;;;;;16.35;76.28;97243.06;5104187;27;45483;-78
2023/10/20 06:40:03;;;;;;;;;2.00;1.00;;;;;16.36;76.28;97236.78;5110552;27;45580;-77
2023/10/20 06:42:29;;;;;;;;;4.25;1.50;;;;;16.37;76.36;97241.91;5099229;27;45480;-81
2023/10/20 06:44:54;;;;;;;;;2.25;1.50;;;;;16.36;76.22;97239.44;5118422;27;46590;-76
2023/10/20 06:47:21;;;;;;;;;2.25;2.25;;;;;16.38;76.26;97232.16;5114819;27;59870;-78
2023/10/20 06:49:47;;;;;;;;;1.25;1.25;;;;;16.39;76.43;97231.19;5116701;27;45476;-77
2023/10/20 06:52:17;;;;;;;;;2.00;0.75;;;;;16.35;76.40;97225.41;5092781;27;45447;-70
2023/10/20 06:54:42;;;;;;;;;1.50;1.00;;;;;16.35;76.25;97237.81;5097780;27;48123;-70
2023/10/20 06:57:09;;;;;;;;;0.00;0.00;;;;;16.36;76.25;97245.56;5117364;27;45491;-70
2023/10/20 06:59:35;;;;;;;;;2.75;1.75;;;;;16.36;76.28;97250.84;5111196;27;45521;-69
2023/10/20 07:02:00;;;;;;;;;1.00;1.00;;;;;16.37;76.41;97265.66;5122583;27;45322;-70
2023/10/20 07:04:26;;;;;;;;;1.75;1.75;;;;;16.36;76.66;97261.38;5123362;27;45320;-74
2023/10/20 07:06:52;;;;;;;;;3.00;1.00;;;;;16.38;76.34;97285.78;5108278;27;45364;-77
2023/10/20 07:09:17;;;;;;;;;1.00;1.00;;;;;16.37;76.52;97272.75;5110692;27;45569;-70
2023/10/20 07:11:43;;;;;;;;;2.75;1.75;;;;;16.38;76.32;97283.16;5094118;27;45312;-70
2023/10/20 07:14:10;;;;;;;;;1.75;1.75;;;;;16.40;76.28;97283.00;5121442;27;46498;-71
2023/10/20 07:16:36;;;;;;;;;1.75;1.25;;;;;16.39;76.16;97286.59;5118836;27;45972;-70
2023/10/20 07:19:03;;;;;;;;;0.75;0.50;;;;;16.39;76.12;97282.16;5123271;27;63203;-71
2023/10/20 07:21:28;;;;;;;;;3.00;1.00;;;;;16.39;75.69;97276.06;5117083;27;45433;-71
2023/10/20 07:23:55;;;;;;;;;2.00;1.75;;;;;16.38;76.31;97272.59;5121757;27;74981;-71
2023/10/20 07:26:20;;;;;;;;;2.00;1.50;;;;;16.36;76.21;97281.66;5122080;27;45800;-69
2023/10/20 07:28:46;;;;;;;;;3.25;2.75;;;;;16.38;76.27;97284.94;5112736;27;45749;-69
2023/10/20 07:31:13;;;;;;;;;5.25;2.25;;;;;16.40;76.07;97285.63;5114182;27;45385;-72
2023/10/20 07:33:38;;;;;;;;;5.00;1.00;;;;;16.39;75.70;97274.22;5114156;27;45431;-67
2023/10/20 07:36:06;;;;;;;;;1.25;1.25;;;;;16.40;75.50;97283.00;5094827;27;45338;-73
2023/10/20 07:38:32;;;;;;;;;0.50;0.00;;;;;16.38;75.36;97284.94;5102768;27;45409;-70
2023/10/20 07:41:07;;;;;;;;;3.00;1.25;;;;;16.39;75.21;97286.59;5137921;27;45316;-75
2023/10/20 07:43:33;;;;;;;;;2.00;1.25;;;;;16.38;75.34;97285.78;5120402;27;45532;-71
2023/10/20 07:45:58;;;;;;;;;3.25;2.25;;;;;16.40;75.59;97294.38;5103544;27;45405;-71
2023/10/20 07:48:25;;;;;;;;;4.00;2.25;;;;;16.42;75.46;97310.03;5088898;27;45459;-75
2023/10/20 07:50:52;;;;;;;;;2.00;1.50;;;;;16.38;75.17;97295.50;5123742;27;45297;-73
2023/10/20 07:53:18;;;;;;;;;2.50;2.25;;;;;16.42;75.14;97307.41;5113357;27;45295;-73
2023/10/20 07:55:43;;;;;;;;;1.50;1.50;;;;;16.46;75.17;97324.56;5118206;27;45464;-73
2023/10/20 07:58:09;;;;;;;;;2.25;1.00;;;;;16.47;74.88;97319.13;5116683;27;47169;-74
2023/10/20 08:00:34;;;;;;;;;1.00;1.00;;;;;16.51;74.80;97315.16;5120211;27;72285;-72
2023/10/20 08:03:00;;;;;;;;;2.75;1.75;;;;;16.51;74.40;97320.44;5122494;27;74860;-73
2023/10/20 08:05:25;;;;;;;;;1.75;1.75;;;;;16.54;74.73;97321.94;5133147;27;45302;-72
2023/10/20 08:07:50;;;;;;;;;3.50;1.25;;;;;16.54;74.49;97311.38;5120225;27;45661;-72
2023/10/20 08:10:16;;;;;;;;;3.00;1.75;;;;;16.61;74.36;97324.72;5093871;27;63384;-81
2023/10/20 08:12:41;;;;;;;;;1.00;1.00;;;;;16.61;73.60;97322.09;5120108;27;45515;-69
2023/10/20 08:15:08;;;;;;;;;0.75;0.75;;;;;16.62;73.25;97332.47;5104440;27;53806;-68
2023/10/20 08:17:33;;;;;;;;;2.50;1.75;;;;;16.62;72.83;97337.78;5112353;27;45655;-69
2023/10/20 08:19:59;;;;;;;;;3.75;1.00;;;;;16.64;72.86;97335.81;5117279;27;45446;-73
2023/10/20 08:22:27;;;;;;;;;1.50;1.50;;;;;16.68;73.16;97339.75;5116485;27;46623;-68
2023/10/20 08:24:52;;;;;;;;;0.75;0.75;;;;;16.70;73.26;97336.97;5115925;27;45459;-71
2023/10/20 08:27:18;;;;;;;;;1.25;1.25;;;;;16.72;72.84;97342.09;5111679;27;52597;-67
2023/10/20 08:29:47;;;;;;;;;1.75;1.75;;;;;16.73;72.80;97344.53;5098395;27;45688;-67
2023/10/20 08:32:13;;;;;;;;;2.00;2.00;;;;;16.73;72.82;97338.44;5127018;27;45529;-64
2023/10/20 08:34:38;;;;;;;;;1.75;1.75;;;;;16.77;72.51;97343.25;5120590;27;45377;-67
2023/10/20 08:37:04;;;;;;;;;2.75;1.75;;;;;16.79;72.67;97345.72;5120225;27;69228;-67
2023/10/20 08:39:30;;;;;;;;;2.50;1.50;;;;;16.79;72.83;97340.44;5122756;27;71148;-67
2023/10/20 08:41:56;;;;;;;;;4.00;4.00;;;;;16.83;72.80;97347.03;5095951;27;46952;-66
2023/10/20 08:44:22;;;;;;;;;2.00;2.00;;;;;16.86;72.40;97339.63;5125614;27;45429;-67
2023/10/20 08:46:49;;;;;;;;;2.00;1.75;;;;;16.93;72.54;97350.38;5129584;27;53914;-66
2023/10/20 08:49:18;;;;;;;;;4.50;3.00;;;;;17.01;72.43;97346.91;5113012;27;45612;-70
2023/10/20 08:51:46;;;;;;;;;3.00;2.00;;;;;17.05;71.97;97343.78;5120540;27;46882;-68
2023/10/20 08:54:13;;;;;;;;;3.00;3.00;;;;;17.06;71.71;97342.75;5106363;27;45318;-69
2023/10/20 08:56:40;;;;;;;;;5.00;2.75;;;;;17.06;71.39;97349.88;5120623;27;45358;-69
2023/10/20 08:59:05;;;;;;;;;2.00;2.00;;;;;17.05;71.74;97349.06;5099864;27;45529;-67
2023/10/20 09:01:31;;;;;;;;;3.25;3.25;;;;;17.03;71.42;97351.03;5101637;27;46907;-67
2023/10/20 09:03:56;;;;;;;;;3.50;2.00;;;;;17.08;71.37;97353.16;5105748;27;45524;-67
2023/10/20 09:06:25;;;;;;;;;4.00;3.75;;;;;17.12;71.36;97354.47;5092250;27;50984;-67
2023/10/20 09:08:51;;;;;;;;;2.00;2.00;;;;;17.14;71.29;97351.66;5101137;27;45609;-67
2023/10/20 09:11:18;;;;;;;;;5.00;3.00;;;;;17.18;70.86;97353.81;5103648;27;54803;-67
2023/10/20 09:13:44;;;;;;;;;3.25;3.25;;;;;17.23;70.96;97363.91;5116525;27;45374;-68
2023/10/20 09:16:13;;;;;;;;;2.75;2.75;;;;;17.25;70.94;97364.56;5115011;27;45408;-68
2023/10/20 09:18:46;;;;;;;;;2.50;2.50;;;;;17.29;70.54;97367.69;5117410;27;45371;-68
2023/10/20 09:21:17;;;;;;;;;7.00;3.50;;;;;17.26;70.50;97369.69;5116059;27;46156;-67
2023/10/20 09:24:03;;;;;;;;;4.75;3.25;;;;;17.27;69.86;97373.97;5109516;27;45265;-67
2023/10/20 09:26:32;;;;;;;;;5.50;3.50;;;;;17.23;69.69;97371.84;5115964;27;45476;-68
2023/10/20 09:28:58;;;;;;;;;2.75;2.00;;;;;17.24;69.46;97378.75;5116909;27;45668;-67
2023/10/20 09:31:24;;;;;;;;;3.50;2.25;;;;;17.23;69.58;97369.19;5108871;27;45379;-67
2023/10/20 09:33:50;;;;;;;;;5.75;2.50;;;;;17.30;69.39;97374.63;5113136;27;47122;-68
2023/10/20 09:36:17;;;;;;;;;3.00;2.00;;;;;17.37;69.76;97370.31;5118100;27;45499;-66
2023/10/20 09:38:50;;;;;;;;;1.25;1.25;;;;;17.49;68.99;97376.91;5100865;27;45409;-68
2023/10/20 09:41:17;;;;;;;;;4.50;3.00;;;;;17.57;68.61;97376.91;5084841;27;48162;-67
2023/10/20 09:43:53;;;;;;;;;1.50;1.50;;;;;17.63;68.92;97378.84;5097741;27;45380;-66
2023/10/20 09:46:31;;;;;;;;;6.50;3.00;;;;;17.71;68.49;97382.50;5119553;27;45453;-66
2023/10/20 09:48:59;;;;;;;;;4.75;2.75;;;;;17.77;68.80;97377.34;5112456;27;45595;-65
2023/10/20 09:51:25;;;;;;;;;3.25;2.00;;;;;17.83;68.45;97383.78;5119700;27;45303;-66
2023/10/20 09:53:50;;;;;;;;;5.75;4.00;;;;;17.84;68.00;97391.53;5127037;27;45354;-67
2023/10/20 09:56:17;;;;;;;;;4.50;4.00;;;;;17.88;68.27;97391.22;5109602;27;45359;-67
2023/10/20 09:58:43;;;;;;;;;5.50;5.00;;;;;17.92;68.26;97397.81;5100831;27;67708;-67
2023/10/20 10:01:12;;;;;;;;;4.00;2.25;;;;;17.95;68.18;97400.94;5102049;27;75667;-68
2023/10/20 10:03:40;;;;;;;;;3.50;2.50;;;;;17.98;67.31;97403.25;5109910;27;45327;-67
2023/10/20 10:06:12;;;;;;;;;2.75;2.00;;;;;18.06;67.32;97393.63;5102529;27;45248;-68
2023/10/20 10:08:41;;;;;;;;;4.00;2.50;;;;;18.13;67.40;97397.25;5100690;27;45463;-68
2023/10/20 10:11:19;;;;;;;;;4.00;3.25;;;;;18.23;67.08;97411.09;5105573;27;46347;-68
2023/10/20 10:13:44;;;;;;;;;6.00;4.25;;;;;18.28;67.33;97408.78;5108283;27;45259;-67
2023/10/20 10:16:13;;;;;;;;;5.00;5.00;;;;;18.28;66.49;97414.06;5120270;27;45749;-67
2023/10/20 10:18:45;;;;;;;;;3.25;3.25;;;;;18.28;66.47;97414.06;5118672;27;45290;-67
2023/10/20 10:21:23;;;;;;;;;7.25;3.50;;;;;18.31;66.95;97408.44;5097592;27;47592;-66
2023/10/20 10:24:08;;;;;;;;;10.25;6.75;;;;;18.40;66.62;97406.56;5100072;27;45685;-68
2023/10/20 10:26:33;;;;;;;;;6.00;4.25;;;;;18.48;66.38;97403.88;5118903;27;45612;-69
2023/10/20 10:28:59;;;;;;;;;5.75;3.75;;;;;18.48;66.27;97409.16;5101861;27;45575;-68
2023/10/20 10:31:35;;;;;;;;;5.00;4.25;;;;;18.43;66.55;97422.09;5097898;27;70798;-69
2023/10/20 10:34:01;;;;;;;;;7.00;4.50;;;;;18.35;66.52;97414.22;5115538;27;45257;-68
2023/10/20 10:36:26;;;;;;;;;7.25;6.25;;;;;18.25;67.44;97416.22;5106748;27;45474;-68
2023/10/20 10:38:52;;;;;;;;;4.25;3.00;;;;;18.20;67.67;97422.03;5105774;27;45848;-67
2023/10/20 10:41:24;;;;;;;;;4.50;3.25;;;;;18.10;68.40;97429.38;5119681;27;56809;-68
2023/10/20 10:43:54;;;;;;;;;4.00;2.00;;;;;17.98;68.56;97424.41;5106658;27;45724;-67
2023/10/20 10:46:19;;;;;;;;;7.00;3.00;;;;;17.93;68.76;97423.28;5111999;27;45262;-68
2023/10/20 10:48:45;;;;;;;;;7.00;5.00;;;;;17.88;69.37;97423.78;5102048;27;60327;-68
2023/10/20 10:51:10;;;;;;;;;6.75;4.00;;;;;17.83;69.48;97423.47;5103786;27;45416;-67
2023/10/20 10:53:38;;;;;;;;;4.75;3.50;;;;;17.87;69.96;97426.63;5102215;27;45538;-68
2023/10/20 10:56:04;;;;;;;;;4.50;3.50;;;;;17.95;70.12;97423.94;5102231;27;45617;-68
2023/10/20 10:58:30;;;;;;;;;5.50;5.25;;;;;18.00;69.68;97425.06;5101346;27;45335;-68
2023/10/20 11:00:56;;;;;;;;;9.25;7.00;;;;;18.06;70.11;97426.25;5101909;27;47720;-68
2023/10/20 11:03:21;;;;;;;;;9.50;7.75;;;;;18.14;69.87;97435.97;5107014;27;71155;-68
2023/10/20 11:05:47;;;;;;;;;7.75;6.75;;;;;18.13;69.76;97431.66;5101819;27;45562;-72
2023/10/20 11:08:12;;;;;;;;;64.75;49.75;;;;;18.21;69.98;97435.09;5100846;27;45277;-71
2023/10/20 11:10:42;;;;;;;;;15.00;11.00;;;;;18.28;69.62;97426.50;5109481;27;46108;-69
2023/10/20 11:13:13;;;;;;;;;7.00;5.75;;;;;18.36;69.71;97418.50;5113001;27;45548;-68
2023/10/20 11:15:39;;;;;;;;;6.00;5.00;;;;;18.49;69.02;97423.25;5102714;27;45566;-69
2023/10/20 11:18:07;;;;;;;;;7.50;3.00;;;;;18.50;68.58;97412.50;5115043;27;45587;-71
2023/10/20 11:20:36;;;;;;;;;4.75;4.75;;;;;18.65;68.70;97422.34;5122099;27;45559;-74
2023/10/20 11:23:03;;;;;;;;;7.25;5.25;;;;;18.69;68.25;97419.16;5112498;27;45306;-71
2023/10/20 11:25:28;;;;;;;;;7.00;4.50;;;;;18.79;68.33;97419.75;5111994;27;45297;-76
2023/10/20 11:27:54;;;;;;;;;7.00;5.00;;;;;18.83;68.00;97411.50;5127799;27;45580;-72
2023/10/20 11:30:27;;;;;;;;;9.75;4.75;;;;;18.87;66.94;97413.59;5111094;27;55499;-73
2023/10/20 11:32:53;;;;;;;;;8.50;5.25;;;;;18.91;67.44;97409.63;5116477;27;45647;-71
2023/10/20 11:35:21;;;;;;;;;9.00;6.00;;;;;18.91;66.83;97414.06;5114605;27;45432;-71
2023/10/20 11:37:56;;;;;;;;;7.25;6.00;;;;;18.87;67.10;97405.66;5117817;27;45461;-70
2023/10/20 11:40:22;;;;;;;;;5.25;4.00;;;;;18.86;67.21;97398.72;5118959;27;45465;-78
2023/10/20 11:42:48;;;;;;;;;4.50;3.00;;;;;18.92;67.38;97397.19;5118452;27;45794;-73
2023/10/20 11:45:13;;;;;;;;;7.25;4.75;;;;;18.92;66.94;97389.22;5123502;27;45397;-74
2023/10/20 11:47:39;;;;;;;;;3.00;3.00;;;;;18.91;67.13;97398.16;5122601;27;45412;-73
2023/10/20 11:50:11;;;;;;;;;4.00;4.00;;;;;18.90;66.98;97402.66;5112014;27;45375;-73
2023/10/20 11:52:39;;;;;;;;;6.00;4.00;;;;;18.90;67.16;97402.66;5122324;27;45754;-75
2023/10/20 11:55:06;;;;;;;;;5.50;3.00;;;;;18.94;67.06;97403.94;5109943;27;45352;-78
2023/10/20 11:57:32;;;;;;;;;8.00;6.50;;;;;19.08;67.12;97398.88;5121238;27;45580;-74
2023/10/20 11:59:58;;;;;;;;;5.75;4.00;;;;;19.30;66.56;97399.84;5098405;27;47035;-75